Главная страница
METAR-TAF:

METAR-TAF

Аэропорты :

Оба, Вануату

широта: 15-18-24S, долгота: 167-58-02E, высота над уровнем моря: 51 м

Текущие метеонаблюдения

Эта сводка был подготовлена 15 часа и 30 минут назад, в 03:00 UTC
Ветер 10 Узел от восточно-юго-восточный
Температура 30°C
Влажность 89%
Давление 1012 hPa
Видимость 10 км и более
Рассеянная облачность на высоте 1800 фута

METAR: NVSG 140300Z 12010KT 9999 BKN018 30/28 Q1012 RERA

Время: 05:30 (18:30 UTC)

Прогноз

Эта сводка был подготовлена 1 час и 30 минут назад, в 17:00 UTC
Прогноз действительный с 14-го 18 UTC до 15-го 18 UTC
Ветер 12 Узел от восточно-юго-восточный с порывами до 22 Узел
Видимость: 8000 м
Отдельные облака на высоте 2000 фута
Рассеянная облачность на высоте 4000 фута
Отдельные облака на высоте 1200 фута
Рассеянная облачность на высоте 1800 фута
Сплошная облачность на высоте 3800 фута
ливневые дожди,

TAF: NVSG 141700Z 1418/1518 12012G22KT 9999 SCT020 BKN040 INTER 1418/1424 8000 SHRA SCT012 BKN018 OVC038

Метеонаблюдения и прогнозы для более 4000 аэропортов (сводки METAR и TAF).

Имеющиеся станции представлены на карте желтыми и красными точками.

Чтобы увидеть название станции, наведите на нее мышь.

Затем щелкните, чтобы увидеть метеонаблюдения и метеопрогнозы.

Управление картой: чтобы увеличить масштаб, щелкните зеленые кнопки с черным крестиком; чтобы уменьшить масштаб, щелкните зеленую кнопку с тире; для просмотра соседних карт щелкайте зеленые стрелки.


METAR-TAF: